IGO9592 VOMM-VOHS
Flight info
| Callsign | IGO9592 |
|---|---|
| Flight time | 0h 51m |
| Altitude | 38000 |
| Route | KAMGU2A KAMGU W20 LEDOB LEDOB8 |
| Aircraft | A20N/M-SDE2E3FGHIRWXY/LB1 |
Departure
| Time | 2026-05-08 13:12 |
|---|---|
| Airport | Chennai International Airport (VOMM) |
Arrival
| Time | 2026-05-08 14:03 |
|---|---|
| Airport | Rajiv Gandhi International Airport (VOHS) |
| Time | Latitude | Longitude | Altitude | Speed | Heading |
|---|---|---|---|---|---|
| 2026-05-08 12:27 | 12.98281 | 80.16184 | 47 ft | 0 kts | 158° |
| 2026-05-08 12:58 | 12.98280 | 80.16184 | 47 ft | 0 kts | 158° |
| 2026-05-08 12:58 | 12.98285 | 80.16183 | 47 ft | 1 kts | 158° |
| 2026-05-08 12:58 | 12.98300 | 80.16177 | 47 ft | 3 kts | 158° |
| 2026-05-08 12:59 | 12.98319 | 80.16168 | 47 ft | 2 kts | 181° |
| 2026-05-08 12:59 | 12.98334 | 80.16175 | 47 ft | 2 kts | 193° |
| 2026-05-08 12:59 | 12.98358 | 80.16179 | 42 ft | 4 kts | 209° |
| 2026-05-08 12:59 | 12.98378 | 80.16199 | 47 ft | 0 kts | 259° |
| 2026-05-08 13:04 | 12.98380 | 80.16190 | 47 ft | 1 kts | 287° |
| 2026-05-08 13:04 | 12.98392 | 80.16177 | 46 ft | 4 kts | 315° |
| 2026-05-08 13:04 | 12.98431 | 80.16156 | 47 ft | 8 kts | 345° |
| 2026-05-08 13:05 | 12.98495 | 80.16132 | 47 ft | 12 kts | 326° |
| 2026-05-08 13:05 | 12.98518 | 80.16109 | 47 ft | 0 kts | 304° |
| 2026-05-08 13:05 | 12.98518 | 80.16107 | 47 ft | 0 kts | 282° |
| 2026-05-08 13:05 | 12.98516 | 80.16099 | 47 ft | 2 kts | 261° |
| 2026-05-08 13:06 | 12.98508 | 80.16071 | 47 ft | 6 kts | 248° |
| 2026-05-08 13:06 | 12.98495 | 80.16038 | 45 ft | 9 kts | 248° |
| 2026-05-08 13:06 | 12.98456 | 80.15937 | 44 ft | 14 kts | 248° |
| 2026-05-08 13:06 | 12.98421 | 80.15844 | 19 ft | 15 kts | 250° |
| 2026-05-08 13:07 | 12.98391 | 80.15774 | 47 ft | 17 kts | 245° |
| 2026-05-08 13:07 | 12.98363 | 80.15680 | 47 ft | 11 kts | 265° |
| 2026-05-08 13:07 | 12.98370 | 80.15621 | 47 ft | 13 kts | 282° |
| 2026-05-08 13:07 | 12.98387 | 80.15557 | 45 ft | 0 kts | 285° |
| 2026-05-08 13:09 | 12.98387 | 80.15556 | 47 ft | 1 kts | 285° |
| 2026-05-08 13:09 | 12.98392 | 80.15537 | 47 ft | 5 kts | 285° |
| 2026-05-08 13:09 | 12.98405 | 80.15491 | 45 ft | 9 kts | 286° |
| 2026-05-08 13:09 | 12.98414 | 80.15422 | 47 ft | 11 kts | 253° |
| 2026-05-08 13:10 | 12.98408 | 80.15347 | 46 ft | 7 kts | 320° |
| 2026-05-08 13:10 | 12.98432 | 80.15354 | 48 ft | 5 kts | 34° |
| 2026-05-08 13:10 | 12.98448 | 80.15388 | 47 ft | 7 kts | 68° |
| 2026-05-08 13:10 | 12.98460 | 80.15417 | 47 ft | 1 kts | 67° |
| 2026-05-08 13:11 | 12.98462 | 80.15423 | 45 ft | 4 kts | 67° |
| 2026-05-08 13:11 | 12.98556 | 80.15678 | 46 ft | 80 kts | 69° |
| 2026-05-08 13:11 | 12.98839 | 80.16435 | 67 ft | 145 kts | 70° |
| 2026-05-08 13:11 | 12.99231 | 80.17467 | 651 ft | 157 kts | 71° |
| 2026-05-08 13:12 | 12.99701 | 80.18515 | 1390 ft | 172 kts | 54° |
| 2026-05-08 13:12 | 13.00715 | 80.19286 | 2136 ft | 196 kts | 16° |
| 2026-05-08 13:12 | 13.02076 | 80.19340 | 3293 ft | 198 kts | 354° |
| 2026-05-08 13:12 | 13.03429 | 80.19022 | 4443 ft | 200 kts | 350° |
| 2026-05-08 13:13 | 13.04760 | 80.18715 | 5540 ft | 201 kts | 351° |
| 2026-05-08 13:13 | 13.06276 | 80.18394 | 6123 ft | 239 kts | 352° |
| 2026-05-08 13:13 | 13.08074 | 80.18067 | 6441 ft | 276 kts | 353° |
| 2026-05-08 13:13 | 13.10075 | 80.17761 | 6301 ft | 324 kts | 354° |
| 2026-05-08 13:14 | 13.12502 | 80.17462 | 6317 ft | 356 kts | 355° |
| 2026-05-08 13:14 | 13.14917 | 80.17173 | 7666 ft | 346 kts | 354° |
| 2026-05-08 13:14 | 13.17261 | 80.16609 | 8361 ft | 362 kts | 345° |
| 2026-05-08 13:14 | 13.19819 | 80.15778 | 8249 ft | 396 kts | 345° |
| 2026-05-08 13:15 | 13.22635 | 80.15180 | 7943 ft | 427 kts | 355° |
| 2026-05-08 13:15 | 13.25501 | 80.14867 | 9255 ft | 411 kts | 355° |
| 2026-05-08 13:15 | 13.28313 | 80.14558 | 9937 ft | 406 kts | 355° |
| 2026-05-08 13:15 | 13.31142 | 80.14248 | 10308 ft | 414 kts | 355° |
| 2026-05-08 13:16 | 13.34002 | 80.13935 | 11065 ft | 415 kts | 355° |
| 2026-05-08 13:16 | 13.36881 | 80.13588 | 11945 ft | 417 kts | 351° |
| 2026-05-08 13:16 | 13.39642 | 80.12708 | 12896 ft | 417 kts | 335° |
| 2026-05-08 13:16 | 13.42092 | 80.11125 | 13809 ft | 419 kts | 326° |
| 2026-05-08 13:17 | 13.44531 | 80.09460 | 14644 ft | 416 kts | 329° |
| 2026-05-08 13:17 | 13.47017 | 80.08021 | 15864 ft | 407 kts | 332° |
| 2026-05-08 13:17 | 13.49580 | 80.06727 | 16717 ft | 410 kts | 334° |
| 2026-05-08 13:17 | 13.52205 | 80.05523 | 17226 ft | 408 kts | 335° |
| 2026-05-08 13:18 | 13.54697 | 80.04435 | 17514 ft | 381 kts | 335° |
| 2026-05-08 13:18 | 13.57068 | 80.03416 | 17695 ft | 358 kts | 336° |
| 2026-05-08 13:18 | 13.59298 | 80.02456 | 17797 ft | 337 kts | 335° |
| 2026-05-08 13:18 | 13.61417 | 80.01540 | 17815 ft | 326 kts | 335° |
| 2026-05-08 13:19 | 13.63542 | 80.00636 | 17843 ft | 345 kts | 340° |
| 2026-05-08 13:19 | 13.65875 | 79.99740 | 18000 ft | 362 kts | 341° |
| 2026-05-08 13:19 | 13.68245 | 79.98812 | 18148 ft | 377 kts | 340° |
| 2026-05-08 13:19 | 13.70739 | 79.97785 | 18381 ft | 388 kts | 339° |
| 2026-05-08 13:20 | 13.73238 | 79.96710 | 18842 ft | 391 kts | 338° |
| 2026-05-08 13:20 | 13.75755 | 79.95607 | 19361 ft | 393 kts | 337° |
| 2026-05-08 13:20 | 13.78284 | 79.94488 | 19806 ft | 398 kts | 337° |
| 2026-05-08 13:20 | 13.80859 | 79.93343 | 20267 ft | 401 kts | 337° |
| 2026-05-08 13:21 | 13.83431 | 79.92200 | 20729 ft | 405 kts | 337° |
| 2026-05-08 13:21 | 13.85996 | 79.91062 | 21192 ft | 408 kts | 337° |
| 2026-05-08 13:21 | 13.88630 | 79.89897 | 21671 ft | 412 kts | 336° |
| 2026-05-08 13:21 | 13.91273 | 79.88730 | 22112 ft | 415 kts | 336° |
| 2026-05-08 13:22 | 13.93943 | 79.87553 | 22569 ft | 419 kts | 336° |
| 2026-05-08 13:22 | 13.96635 | 79.86365 | 23022 ft | 422 kts | 336° |
| 2026-05-08 13:22 | 13.99348 | 79.85169 | 23444 ft | 426 kts | 336° |
| 2026-05-08 13:22 | 14.02080 | 79.83965 | 23885 ft | 427 kts | 336° |
| 2026-05-08 13:23 | 14.04813 | 79.82763 | 24317 ft | 428 kts | 336° |
| 2026-05-08 13:23 | 14.07562 | 79.81555 | 24703 ft | 430 kts | 336° |
| 2026-05-08 13:23 | 14.10330 | 79.80339 | 25075 ft | 433 kts | 336° |
| 2026-05-08 13:23 | 14.13105 | 79.79119 | 25496 ft | 434 kts | 336° |
| 2026-05-08 13:24 | 14.15834 | 79.77920 | 25876 ft | 436 kts | 336° |
| 2026-05-08 13:24 | 14.18684 | 79.76667 | 26237 ft | 438 kts | 336° |
| 2026-05-08 13:24 | 14.21500 | 79.75427 | 26544 ft | 441 kts | 336° |
| 2026-05-08 13:24 | 14.24329 | 79.74184 | 26916 ft | 443 kts | 336° |
| 2026-05-08 13:25 | 14.27173 | 79.72937 | 27298 ft | 444 kts | 336° |
| 2026-05-08 13:25 | 14.29994 | 79.71701 | 27645 ft | 446 kts | 335° |
| 2026-05-08 13:25 | 14.32861 | 79.70443 | 27967 ft | 448 kts | 335° |
| 2026-05-08 13:25 | 14.35672 | 79.69207 | 28212 ft | 452 kts | 335° |
| 2026-05-08 13:26 | 14.38651 | 79.67899 | 28547 ft | 454 kts | 336° |
| 2026-05-08 13:26 | 14.41564 | 79.66618 | 28861 ft | 456 kts | 336° |
| 2026-05-08 13:26 | 14.44492 | 79.65332 | 29154 ft | 458 kts | 335° |
| 2026-05-08 13:26 | 14.47399 | 79.64056 | 29435 ft | 461 kts | 335° |
| 2026-05-08 13:27 | 14.50364 | 79.62755 | 29771 ft | 462 kts | 335° |
| 2026-05-08 13:27 | 14.53329 | 79.61454 | 30024 ft | 465 kts | 334° |
| 2026-05-08 13:27 | 14.56245 | 79.60076 | 30177 ft | 467 kts | 329° |
| 2026-05-08 13:27 | 14.59224 | 79.58619 | 30369 ft | 470 kts | 330° |
| 2026-05-08 13:28 | 14.62216 | 79.57213 | 30572 ft | 472 kts | 331° |
| 2026-05-08 13:28 | 14.65198 | 79.55870 | 30794 ft | 474 kts | 332° |
| 2026-05-08 13:28 | 14.68241 | 79.54534 | 31028 ft | 475 kts | 333° |
| 2026-05-08 13:28 | 14.71257 | 79.53227 | 31289 ft | 476 kts | 333° |
| 2026-05-08 13:29 | 14.74370 | 79.51883 | 31535 ft | 478 kts | 333° |
| 2026-05-08 13:29 | 14.77437 | 79.50559 | 31836 ft | 477 kts | 333° |
| 2026-05-08 13:29 | 14.80445 | 79.49259 | 32129 ft | 477 kts | 333° |
| 2026-05-08 13:29 | 14.83540 | 79.47918 | 32425 ft | 477 kts | 333° |
| 2026-05-08 13:30 | 14.86564 | 79.46605 | 32701 ft | 477 kts | 334° |
| 2026-05-08 13:30 | 14.89672 | 79.45253 | 32990 ft | 477 kts | 334° |
| 2026-05-08 13:30 | 14.92736 | 79.43919 | 33266 ft | 477 kts | 334° |
| 2026-05-08 13:30 | 14.95785 | 79.42590 | 33538 ft | 477 kts | 334° |
| 2026-05-08 13:31 | 14.98829 | 79.41259 | 33793 ft | 477 kts | 334° |
| 2026-05-08 13:31 | 15.01828 | 79.39932 | 34031 ft | 477 kts | 333° |
| 2026-05-08 13:31 | 15.04937 | 79.38547 | 34288 ft | 476 kts | 333° |
| 2026-05-08 13:31 | 15.07983 | 79.37188 | 34538 ft | 476 kts | 334° |
| 2026-05-08 13:32 | 15.11026 | 79.35832 | 34776 ft | 475 kts | 334° |
| 2026-05-08 13:32 | 15.14029 | 79.34493 | 35015 ft | 475 kts | 334° |
| 2026-05-08 13:32 | 15.17059 | 79.33142 | 35281 ft | 474 kts | 334° |
| 2026-05-08 13:32 | 15.20092 | 79.31789 | 35525 ft | 473 kts | 334° |
| 2026-05-08 13:33 | 15.23084 | 79.30454 | 35779 ft | 472 kts | 334° |
| 2026-05-08 13:33 | 15.26113 | 79.29102 | 36020 ft | 472 kts | 334° |
| 2026-05-08 13:33 | 15.29164 | 79.27739 | 36297 ft | 472 kts | 334° |
| 2026-05-08 13:33 | 15.32127 | 79.26414 | 36547 ft | 471 kts | 334° |
| 2026-05-08 13:34 | 15.35153 | 79.25061 | 36797 ft | 470 kts | 334° |
| 2026-05-08 13:34 | 15.38166 | 79.23712 | 37066 ft | 470 kts | 334° |
| 2026-05-08 13:34 | 15.41155 | 79.22375 | 37449 ft | 466 kts | 334° |
| 2026-05-08 13:34 | 15.44116 | 79.21048 | 37740 ft | 464 kts | 334° |
| 2026-05-08 13:35 | 15.47062 | 79.19727 | 37845 ft | 464 kts | 334° |
| 2026-05-08 13:35 | 15.50024 | 79.18403 | 37852 ft | 463 kts | 334° |
| 2026-05-08 13:35 | 15.55955 | 79.15765 | 37857 ft | 463 kts | 334° |
| 2026-05-08 13:36 | 15.61837 | 79.13145 | 37857 ft | 462 kts | 334° |
| 2026-05-08 13:36 | 15.67755 | 79.10506 | 37865 ft | 462 kts | 334° |
| 2026-05-08 13:37 | 15.73624 | 79.07885 | 37875 ft | 462 kts | 334° |
| 2026-05-08 13:37 | 15.79593 | 79.05219 | 37671 ft | 462 kts | 334° |
| 2026-05-08 13:38 | 15.82516 | 79.03911 | 37422 ft | 463 kts | 334° |
| 2026-05-08 13:38 | 15.85475 | 79.02588 | 37163 ft | 463 kts | 334° |
| 2026-05-08 13:38 | 15.88440 | 79.01262 | 36917 ft | 463 kts | 334° |
| 2026-05-08 13:38 | 15.91403 | 78.99936 | 36667 ft | 464 kts | 334° |
| 2026-05-08 13:39 | 15.94383 | 78.98601 | 36423 ft | 464 kts | 334° |
| 2026-05-08 13:39 | 15.97353 | 78.97269 | 36178 ft | 465 kts | 334° |
| 2026-05-08 13:39 | 16.00145 | 78.95732 | 36079 ft | 454 kts | 326° |
| 2026-05-08 13:39 | 16.02822 | 78.94052 | 35982 ft | 443 kts | 326° |
| 2026-05-08 13:40 | 16.05439 | 78.92413 | 35737 ft | 434 kts | 326° |
| 2026-05-08 13:40 | 16.07993 | 78.90812 | 35392 ft | 428 kts | 326° |
| 2026-05-08 13:40 | 16.10549 | 78.89211 | 34931 ft | 425 kts | 326° |
| 2026-05-08 13:40 | 16.13084 | 78.87622 | 34451 ft | 423 kts | 326° |
| 2026-05-08 13:41 | 16.15580 | 78.86058 | 34022 ft | 420 kts | 326° |
| 2026-05-08 13:41 | 16.18080 | 78.84489 | 33519 ft | 426 kts | 326° |
| 2026-05-08 13:41 | 16.20643 | 78.82880 | 33317 ft | 437 kts | 326° |
| 2026-05-08 13:41 | 16.23285 | 78.81220 | 33120 ft | 447 kts | 326° |
| 2026-05-08 13:42 | 16.25946 | 78.79551 | 32929 ft | 445 kts | 326° |
| 2026-05-08 13:42 | 16.28601 | 78.77887 | 32373 ft | 447 kts | 326° |
| 2026-05-08 13:42 | 16.31287 | 78.76201 | 31527 ft | 452 kts | 327° |
| 2026-05-08 13:42 | 16.33998 | 78.74498 | 30547 ft | 459 kts | 327° |
| 2026-05-08 13:43 | 16.36740 | 78.72775 | 29386 ft | 468 kts | 327° |
| 2026-05-08 13:43 | 16.39578 | 78.70990 | 28239 ft | 474 kts | 327° |
| 2026-05-08 13:43 | 16.42384 | 78.69227 | 27585 ft | 467 kts | 327° |
| 2026-05-08 13:43 | 16.45147 | 78.67491 | 26935 ft | 460 kts | 328° |
| 2026-05-08 13:44 | 16.47840 | 78.65797 | 26314 ft | 454 kts | 328° |
| 2026-05-08 13:44 | 16.50526 | 78.64108 | 25690 ft | 448 kts | 328° |
| 2026-05-08 13:44 | 16.53191 | 78.62430 | 25073 ft | 442 kts | 328° |
| 2026-05-08 13:44 | 16.55812 | 78.60780 | 24472 ft | 436 kts | 328° |
| 2026-05-08 13:45 | 16.58397 | 78.59151 | 23884 ft | 431 kts | 328° |
| 2026-05-08 13:45 | 16.60919 | 78.57562 | 23283 ft | 425 kts | 329° |
| 2026-05-08 13:45 | 16.63424 | 78.55984 | 22575 ft | 420 kts | 328° |
| 2026-05-08 13:45 | 16.65926 | 78.54408 | 21812 ft | 418 kts | 328° |
| 2026-05-08 13:46 | 16.68406 | 78.52845 | 21087 ft | 415 kts | 328° |
| 2026-05-08 13:46 | 16.70871 | 78.51292 | 20389 ft | 411 kts | 328° |
| 2026-05-08 13:46 | 16.73318 | 78.49749 | 19733 ft | 408 kts | 328° |
| 2026-05-08 13:46 | 16.75728 | 78.48231 | 19129 ft | 403 kts | 328° |
| 2026-05-08 13:47 | 16.78093 | 78.46741 | 18471 ft | 401 kts | 328° |
| 2026-05-08 13:47 | 16.80483 | 78.45233 | 17774 ft | 398 kts | 328° |
| 2026-05-08 13:47 | 16.82851 | 78.43736 | 17094 ft | 394 kts | 328° |
| 2026-05-08 13:47 | 16.85110 | 78.42218 | 16441 ft | 387 kts | 320° |
| 2026-05-08 13:48 | 16.87200 | 78.40562 | 16244 ft | 367 kts | 316° |
| 2026-05-08 13:48 | 16.89052 | 78.38868 | 16361 ft | 340 kts | 310° |
| 2026-05-08 13:48 | 16.90724 | 78.37221 | 16234 ft | 322 kts | 309° |
| 2026-05-08 13:48 | 16.92361 | 78.35667 | 15684 ft | 317 kts | 315° |
| 2026-05-08 13:49 | 16.94168 | 78.34431 | 15110 ft | 315 kts | 328° |
| 2026-05-08 13:49 | 16.96207 | 78.33556 | 14736 ft | 306 kts | 334° |
| 2026-05-08 13:49 | 16.98197 | 78.32993 | 14452 ft | 293 kts | 341° |
| 2026-05-08 13:49 | 17.00155 | 78.32651 | 14276 ft | 277 kts | 340° |
| 2026-05-08 13:50 | 17.01987 | 78.32199 | 13983 ft | 263 kts | 329° |
| 2026-05-08 13:50 | 17.03674 | 78.31458 | 13115 ft | 272 kts | 324° |
| 2026-05-08 13:50 | 17.05377 | 78.30476 | 12310 ft | 280 kts | 321° |
| 2026-05-08 13:50 | 17.06908 | 78.29257 | 11895 ft | 274 kts | 309° |
| 2026-05-08 13:51 | 17.08274 | 78.27928 | 11395 ft | 269 kts | 309° |
| 2026-05-08 13:51 | 17.09634 | 78.26629 | 10965 ft | 261 kts | 308° |
| 2026-05-08 13:51 | 17.10893 | 78.25331 | 10470 ft | 258 kts | 302° |
| 2026-05-08 13:51 | 17.12265 | 78.24108 | 9738 ft | 255 kts | 330° |
| 2026-05-08 13:52 | 17.13978 | 78.23813 | 9087 ft | 246 kts | 359° |
| 2026-05-08 13:52 | 17.15604 | 78.24232 | 8480 ft | 241 kts | 17° |
| 2026-05-08 13:52 | 17.16881 | 78.25375 | 7419 ft | 254 kts | 49° |
| 2026-05-08 13:52 | 17.17648 | 78.27184 | 5850 ft | 296 kts | 69° |
| 2026-05-08 13:53 | 17.18200 | 78.29266 | 5532 ft | 287 kts | 65° |
| 2026-05-08 13:53 | 17.18643 | 78.31186 | 5345 ft | 270 kts | 84° |
| 2026-05-08 13:53 | 17.18141 | 78.33029 | 5234 ft | 269 kts | 117° |
| 2026-05-08 13:53 | 17.16711 | 78.34298 | 5299 ft | 275 kts | 148° |
| 2026-05-08 13:54 | 17.14821 | 78.34656 | 5472 ft | 284 kts | 167° |
| 2026-05-08 13:54 | 17.12837 | 78.34775 | 5183 ft | 282 kts | 170° |
| 2026-05-08 13:54 | 17.10938 | 78.34696 | 5011 ft | 279 kts | 176° |
| 2026-05-08 13:54 | 17.08959 | 78.34397 | 4952 ft | 284 kts | 182° |
| 2026-05-08 13:55 | 17.07083 | 78.33906 | 5010 ft | 283 kts | 188° |
| 2026-05-08 13:55 | 17.05312 | 78.32964 | 5163 ft | 284 kts | 208° |
| 2026-05-08 13:55 | 17.03763 | 78.30156 | 4796 ft | 267 kts | 264° |
| 2026-05-08 13:56 | 17.04566 | 78.27882 | 4336 ft | 243 kts | 306° |
| 2026-05-08 13:56 | 17.05421 | 78.27217 | 4225 ft | 219 kts | 323° |
| 2026-05-08 13:56 | 17.06690 | 78.26763 | 4362 ft | 167 kts | 320° |
| 2026-05-08 13:56 | 17.07521 | 78.26003 | 4289 ft | 164 kts | 319° |
| 2026-05-08 13:57 | 17.08511 | 78.25378 | 4355 ft | 164 kts | 345° |
| 2026-05-08 13:57 | 17.09625 | 78.25256 | 4397 ft | 160 kts | 11° |
| 2026-05-08 13:57 | 17.10643 | 78.25642 | 4474 ft | 154 kts | 36° |
| 2026-05-08 13:57 | 17.11569 | 78.26195 | 4593 ft | 155 kts | 31° |
| 2026-05-08 13:58 | 17.12516 | 78.26740 | 4602 ft | 159 kts | 28° |
| 2026-05-08 13:58 | 17.13564 | 78.27134 | 4561 ft | 154 kts | 21° |
| 2026-05-08 13:58 | 17.14541 | 78.27433 | 4527 ft | 139 kts | 20° |
| 2026-05-08 13:58 | 17.15446 | 78.27624 | 4333 ft | 136 kts | 8° |
| 2026-05-08 13:59 | 17.16434 | 78.27624 | 3947 ft | 147 kts | 2° |
| 2026-05-08 13:59 | 17.17464 | 78.27627 | 3659 ft | 156 kts | 7° |
| 2026-05-08 13:59 | 17.18574 | 78.27715 | 3631 ft | 157 kts | 10° |
| 2026-05-08 13:59 | 17.19644 | 78.27863 | 3624 ft | 154 kts | 12° |
| 2026-05-08 14:00 | 17.20699 | 78.28050 | 3626 ft | 154 kts | 15° |
| 2026-05-08 14:00 | 17.21646 | 78.28533 | 3627 ft | 151 kts | 46° |
| 2026-05-08 14:00 | 17.22229 | 78.29424 | 3619 ft | 151 kts | 70° |
| 2026-05-08 14:00 | 17.22492 | 78.30497 | 3606 ft | 149 kts | 82° |
| 2026-05-08 14:01 | 17.22588 | 78.31581 | 3594 ft | 150 kts | 87° |
| 2026-05-08 14:01 | 17.22636 | 78.32682 | 3698 ft | 147 kts | 88° |
| 2026-05-08 14:01 | 17.22689 | 78.33769 | 4109 ft | 149 kts | 88° |
| 2026-05-08 14:01 | 17.22681 | 78.34865 | 4313 ft | 152 kts | 90° |
| 2026-05-08 14:02 | 17.22734 | 78.35968 | 4196 ft | 160 kts | 85° |
| 2026-05-08 14:02 | 17.22788 | 78.37152 | 3796 ft | 160 kts | 89° |
| 2026-05-08 14:02 | 17.22768 | 78.38289 | 3432 ft | 152 kts | 92° |
| 2026-05-08 14:02 | 17.22678 | 78.39416 | 2749 ft | 162 kts | 96° |
| 2026-05-08 14:03 | 17.22632 | 78.40557 | 2354 ft | 153 kts | 82° |
| 2026-05-08 14:03 | 17.22869 | 78.41567 | 2082 ft | 140 kts | 92° |
| 2026-05-08 14:03 | 17.22880 | 78.42654 | 1994 ft | 147 kts | 90° |
| 2026-05-08 14:03 | 17.22877 | 78.43380 | 1988 ft | 45 kts | 90° |
| 2026-05-08 14:04 | 17.22880 | 78.43540 | 1990 ft | 14 kts | 86° |
| 2026-05-08 14:04 | 17.22886 | 78.43632 | 1991 ft | 11 kts | 86° |
| 2026-05-08 14:04 | 17.22892 | 78.43714 | 1991 ft | 12 kts | 86° |
| 2026-05-08 14:04 | 17.22893 | 78.43728 | 1992 ft | 0 kts | 86° |
| 2026-05-08 14:06 | 17.22893 | 78.43734 | 1992 ft | 2 kts | 85° |
| 2026-05-08 14:06 | 17.22896 | 78.43759 | 1992 ft | 5 kts | 83° |
| 2026-05-08 14:06 | 17.22901 | 78.43803 | 1992 ft | 7 kts | 83° |
| 2026-05-08 14:07 | 17.22913 | 78.43865 | 1993 ft | 10 kts | 73° |
| 2026-05-08 14:07 | 17.22943 | 78.43938 | 1993 ft | 12 kts | 65° |
| 2026-05-08 14:07 | 17.22979 | 78.44006 | 1995 ft | 8 kts | 58° |
| 2026-05-08 14:07 | 17.23012 | 78.44060 | 1996 ft | 10 kts | 57° |
| 2026-05-08 14:08 | 17.23069 | 78.44086 | 1995 ft | 10 kts | 353° |
| 2026-05-08 14:08 | 17.23101 | 78.44030 | 1995 ft | 12 kts | 284° |
| 2026-05-08 14:08 | 17.23110 | 78.43984 | 1995 ft | 0 kts | 268° |
| 2026-05-08 14:09 | 17.23110 | 78.43978 | 1995 ft | 3 kts | 266° |
| 2026-05-08 14:09 | 17.23103 | 78.43936 | 1994 ft | 9 kts | 261° |
| 2026-05-08 14:09 | 17.23097 | 78.43854 | 1992 ft | 14 kts | 271° |
| 2026-05-08 14:10 | 17.23100 | 78.43736 | 1991 ft | 18 kts | 271° |
| 2026-05-08 14:10 | 17.23120 | 78.43700 | 1990 ft | 4 kts | 355° |
| 2026-05-08 14:10 | 17.23161 | 78.43700 | 1989 ft | 8 kts | 1° |
| 2026-05-08 14:10 | 17.23229 | 78.43701 | 1989 ft | 11 kts | 0° |
| 2026-05-08 14:11 | 17.23297 | 78.43697 | 1991 ft | 0 kts | 345° |
| 2026-05-08 14:11 | 17.23302 | 78.43696 | 1991 ft | 0 kts | 345° |
| 2026-05-08 14:11 | 17.23314 | 78.43692 | 1989 ft | 3 kts | 336° |
| 2026-05-08 14:11 | 17.23343 | 78.43669 | 1990 ft | 5 kts | 291° |
| 2026-05-08 14:12 | 17.23340 | 78.43612 | 1989 ft | 10 kts | 265° |
| 2026-05-08 14:12 | 17.23337 | 78.43519 | 1988 ft | 15 kts | 270° |
| 2026-05-08 14:12 | 17.23337 | 78.43450 | 1987 ft | 3 kts | 270° |
| 2026-05-08 14:12 | 17.23337 | 78.43411 | 1987 ft | 8 kts | 269° |
| 2026-05-08 14:13 | 17.23335 | 78.43342 | 1986 ft | 7 kts | 269° |
| 2026-05-08 14:13 | 17.23334 | 78.43287 | 1985 ft | 10 kts | 269° |
| 2026-05-08 14:13 | 17.23334 | 78.43215 | 1984 ft | 4 kts | 268° |
| 2026-05-08 14:13 | 17.23333 | 78.43201 | 1984 ft | 4 kts | 270° |
| 2026-05-08 14:14 | 17.23339 | 78.43191 | 1985 ft | 0 kts | 292° |
| 2026-05-08 14:14 | 17.23343 | 78.43181 | 1986 ft | 3 kts | 304° |
| 2026-05-08 14:14 | 17.23364 | 78.43173 | 1985 ft | 4 kts | 352° |
| 2026-05-08 14:14 | 17.23377 | 78.43172 | 1985 ft | 2 kts | 0° |
| 2026-05-08 14:15 | 17.23388 | 78.43172 | 1986 ft | 0 kts | 1° |
| 2026-05-08 14:15 | 17.23390 | 78.43171 | 1986 ft | 0 kts | 357° |
| 2026-05-08 14:15 | 17.23394 | 78.43172 | 1985 ft | 1 kts | 4° |
| 2026-05-08 14:16 | 17.23404 | 78.43171 | 1985 ft | 2 kts | 358° |
| 2026-05-08 14:16 | 17.23411 | 78.43171 | 1985 ft | 0 kts | 358° |